createdAt,value
2022-09-21T00:01:59.665Z,4.59
2022-09-21T00:04:28.246Z,4.60
2022-09-21T00:06:57.543Z,4.59
2022-09-21T00:09:25.992Z,4.61
2022-09-21T00:11:58.304Z,4.61
2022-09-21T00:14:28.986Z,4.62
2022-09-21T00:16:57.840Z,4.62
2022-09-21T00:19:27.022Z,4.65
2022-09-21T00:21:56.661Z,4.69
2022-09-21T00:24:26.254Z,4.67
2022-09-21T00:26:55.770Z,4.66
2022-09-21T00:29:24.243Z,4.64
2022-09-21T00:31:58.983Z,4.66
2022-09-21T00:34:27.754Z,4.70
2022-09-21T00:36:57.051Z,4.67
2022-09-21T00:39:26.353Z,4.66
2022-09-21T00:41:56.290Z,4.65
2022-09-21T00:44:31.594Z,4.62
2022-09-21T00:47:04.814Z,4.57
2022-09-21T00:49:33.751Z,4.55
2022-09-21T00:52:04.410Z,4.55
2022-09-21T00:54:34.546Z,4.57
2022-09-21T00:57:03.159Z,4.50
2022-09-21T00:59:32.416Z,4.48
2022-09-21T01:02:04.489Z,4.45
2022-09-21T01:04:33.060Z,4.42
2022-09-21T01:07:04.728Z,4.40
2022-09-21T01:09:34.348Z,4.36
2022-09-21T01:12:13.338Z,4.31
2022-09-21T01:14:52.947Z,4.30
2022-09-21T01:17:32.005Z,4.26
2022-09-21T01:20:40.574Z,4.22
2022-09-21T01:23:32.947Z,4.19
2022-09-21T01:26:06.295Z,4.19
2022-09-21T01:28:52.583Z,4.19
2022-09-21T01:31:23.654Z,4.20
2022-09-21T01:33:54.292Z,4.22
2022-09-21T01:36:27.187Z,4.27
2022-09-21T01:38:57.185Z,4.32
2022-09-21T01:41:27.513Z,4.30
2022-09-21T01:44:00.996Z,4.31
2022-09-21T01:46:31.024Z,4.34
2022-09-21T01:49:01.349Z,4.35
2022-09-21T01:51:32.195Z,4.35
2022-09-21T01:54:04.914Z,4.32
2022-09-21T01:56:36.958Z,4.29
2022-09-21T01:59:10.179Z,4.26
2022-09-21T02:01:40.392Z,4.30
2022-09-21T02:04:11.086Z,4.26
2022-09-21T02:06:40.093Z,4.24
2022-09-21T02:09:09.363Z,4.22
2022-09-21T02:11:43.973Z,4.18
2022-09-21T02:14:18.241Z,4.14
2022-09-21T02:16:48.212Z,4.08
2022-09-21T02:19:22.289Z,4.05
2022-09-21T02:21:58.693Z,4.03
2022-09-21T02:24:36.658Z,3.98
2022-09-21T02:27:06.584Z,3.98
2022-09-21T02:29:45.202Z,3.97
2022-09-21T02:32:17.079Z,3.97
2022-09-21T02:34:46.987Z,3.99
2022-09-21T02:37:22.713Z,3.93
2022-09-21T02:39:58.253Z,3.86
2022-09-21T02:42:28.309Z,3.86
2022-09-21T02:45:01.056Z,3.84
2022-09-21T02:47:31.581Z,3.85
2022-09-21T02:50:01.457Z,3.88
2022-09-21T02:52:30.501Z,3.88
2022-09-21T02:54:59.170Z,3.88
2022-09-21T02:57:27.493Z,3.92
2022-09-21T02:59:56.026Z,3.95
2022-09-21T03:02:26.103Z,4.00
2022-09-21T03:04:54.899Z,4.02
2022-09-21T03:07:23.850Z,4.09
2022-09-21T03:09:52.882Z,4.11
2022-09-21T03:12:22.306Z,4.12
2022-09-21T03:14:51.425Z,4.11
2022-09-21T03:17:20.380Z,4.05
2022-09-21T03:19:55.296Z,4.01
2022-09-21T03:22:24.520Z,4.00
2022-09-21T03:24:57.699Z,3.99
2022-09-21T03:27:30.236Z,3.99
2022-09-21T03:30:02.459Z,3.93
2022-09-21T03:32:31.320Z,3.94
2022-09-21T03:35:04.754Z,3.91
2022-09-21T03:37:38.040Z,3.88
2022-09-21T03:40:13.028Z,3.84
2022-09-21T03:42:41.918Z,3.81
2022-09-21T03:45:13.147Z,3.78
2022-09-21T03:47:44.415Z,3.76
2022-09-21T03:50:14.655Z,3.76
2022-09-21T03:52:46.210Z,3.68
2022-09-21T03:55:18.204Z,3.64
2022-09-21T03:57:47.053Z,3.60
2022-09-21T04:00:16.143Z,3.61
2022-09-21T04:02:46.053Z,3.57
2022-09-21T04:05:17.462Z,3.53
2022-09-21T04:07:47.462Z,3.51
2022-09-21T04:10:20.175Z,3.47
2022-09-21T04:12:48.959Z,3.46
2022-09-21T04:15:19.797Z,3.48
2022-09-21T04:17:48.335Z,3.44
2022-09-21T04:20:18.564Z,3.44
2022-09-21T04:22:47.287Z,3.42
2022-09-21T04:25:15.864Z,3.36
2022-09-21T04:27:44.812Z,3.38
2022-09-21T04:30:14.500Z,3.37
2022-09-21T04:32:44.778Z,3.37
2022-09-21T04:35:14.286Z,3.36
2022-09-21T04:37:44.464Z,3.38
2022-09-21T04:40:13.331Z,3.42
2022-09-21T04:42:43.059Z,3.40
2022-09-21T04:45:12.636Z,3.39
2022-09-21T04:47:42.297Z,3.38
2022-09-21T04:50:11.330Z,3.40
2022-09-21T04:52:40.183Z,3.42
2022-09-21T04:55:11.193Z,3.41
2022-09-21T04:57:40.800Z,3.44
2022-09-21T05:00:10.889Z,3.44
2022-09-21T05:02:39.404Z,3.44
2022-09-21T05:05:09.518Z,3.42
2022-09-21T05:07:39.939Z,3.41
2022-09-21T05:10:13.124Z,3.39
2022-09-21T05:12:42.506Z,3.38
2022-09-21T05:15:12.747Z,3.37
2022-09-21T05:17:42.705Z,3.40
2022-09-21T05:20:12.041Z,3.40
2022-09-21T05:22:41.274Z,3.40
2022-09-21T05:25:12.609Z,3.42
2022-09-21T05:27:41.250Z,3.42
2022-09-21T05:30:11.948Z,3.48
2022-09-21T05:32:45.464Z,3.48
2022-09-21T05:35:18.893Z,3.52
2022-09-21T05:37:53.823Z,3.66
2022-09-21T05:40:24.399Z,3.78
2022-09-21T05:42:53.976Z,3.84
2022-09-21T05:45:23.432Z,3.85
2022-09-21T05:47:58.489Z,3.87
2022-09-21T05:50:33.156Z,3.86
2022-09-21T05:53:07.135Z,3.90
2022-09-21T05:55:41.345Z,3.95
2022-09-21T05:58:15.457Z,4.06
2022-09-21T06:00:46.167Z,4.15
2022-09-21T06:03:36.283Z,4.16
2022-09-21T06:06:04.583Z,4.22
2022-09-21T06:08:32.864Z,4.32
2022-09-21T06:11:03.427Z,4.40
2022-09-21T06:13:31.830Z,4.45
2022-09-21T06:16:03.381Z,4.54
2022-09-21T06:18:32.303Z,4.66
2022-09-21T06:21:00.851Z,4.80
2022-09-21T06:23:29.173Z,4.93
2022-09-21T06:25:58.818Z,5.07
2022-09-21T06:28:29.828Z,5.19
2022-09-21T06:31:13.773Z,5.33
2022-09-21T06:33:48.210Z,5.47
2022-09-21T06:36:17.451Z,5.62
2022-09-21T06:38:49.685Z,5.77
2022-09-21T06:41:21.264Z,5.92
2022-09-21T06:43:55.644Z,6.08
2022-09-21T06:46:24.158Z,6.22
2022-09-21T06:48:53.006Z,6.35
2022-09-21T06:51:22.523Z,6.49
2022-09-21T06:53:51.124Z,6.62
2022-09-21T06:56:22.811Z,6.77
2022-09-21T06:58:57.943Z,6.91
2022-09-21T07:01:26.537Z,6.99
2022-09-21T07:03:55.297Z,7.08
2022-09-21T07:06:23.652Z,7.22
2022-09-21T07:11:42.147Z,7.54
2022-09-21T07:14:17.440Z,7.64
2022-09-21T07:16:46.873Z,7.73
2022-09-21T07:19:16.551Z,7.73
2022-09-21T07:21:47.571Z,7.86
2022-09-21T07:24:16.818Z,7.97
2022-09-21T07:26:45.424Z,8.04
2022-09-21T07:29:17.615Z,8.23
2022-09-21T07:31:48.274Z,8.37
2022-09-21T07:34:17.273Z,8.48
2022-09-21T07:36:46.263Z,8.57
2022-09-21T07:39:15.055Z,8.69
2022-09-21T07:41:43.687Z,8.72
2022-09-21T07:44:12.622Z,8.93
2022-09-21T07:46:47.287Z,9.00
2022-09-21T07:49:17.191Z,9.06
2022-09-21T07:51:47.188Z,9.00
2022-09-21T07:54:16.687Z,9.04
2022-09-21T07:57:07.226Z,9.06
2022-09-21T07:59:35.368Z,9.19
2022-09-21T08:02:06.293Z,9.18
2022-09-21T08:04:35.327Z,9.26
2022-09-21T08:07:03.742Z,9.39
2022-09-21T08:09:32.423Z,9.38
2022-09-21T08:12:01.575Z,9.48
2022-09-21T08:14:29.811Z,9.53
2022-09-21T08:16:58.118Z,9.64
2022-09-21T08:19:28.646Z,9.81
2022-09-21T08:21:58.150Z,9.96
2022-09-21T08:24:30.203Z,10.02
2022-09-21T08:27:02.088Z,10.26
2022-09-21T08:29:30.742Z,10.26
2022-09-21T08:31:59.740Z,10.12
2022-09-21T08:34:30.968Z,10.16
2022-09-21T08:37:01.540Z,10.23
2022-09-21T08:39:29.971Z,10.23
2022-09-21T08:42:11.719Z,10.41
2022-09-21T08:44:41.182Z,10.56
2022-09-21T08:47:15.932Z,10.90
2022-09-21T08:49:49.415Z,10.94
2022-09-21T08:52:19.316Z,10.99
2022-09-21T08:54:50.759Z,11.15
2022-09-21T08:57:19.147Z,11.03
2022-09-21T08:59:49.459Z,11.39
2022-09-21T09:02:35.678Z,11.60
2022-09-21T09:05:10.671Z,11.59
2022-09-21T09:08:10.690Z,11.62
2022-09-21T09:10:39.964Z,12.01
2022-09-21T09:13:19.356Z,12.42
2022-09-21T09:16:00.178Z,12.84
2022-09-21T09:18:40.188Z,12.80
2022-09-21T09:21:19.437Z,12.99
2022-09-21T09:23:53.976Z,13.30
2022-09-21T09:26:24.495Z,13.74
2022-09-21T09:28:56.852Z,14.08
2022-09-21T09:31:26.928Z,13.77
2022-09-21T09:33:57.491Z,13.75
2022-09-21T09:36:53.787Z,13.28
2022-09-21T09:39:18.135Z,13.35
2022-09-21T09:42:05.382Z,13.88
2022-09-21T09:44:57.602Z,14.43
2022-09-21T09:47:32.900Z,14.20
2022-09-21T09:50:05.751Z,13.82
2022-09-21T09:52:36.214Z,14.29
2022-09-21T09:55:15.868Z,14.55
2022-09-21T09:57:44.706Z,14.84
2022-09-21T10:00:15.193Z,15.28
2022-09-21T10:02:50.191Z,15.46
2022-09-21T10:05:23.758Z,14.94
2022-09-21T10:07:55.987Z,15.42
2022-09-21T10:10:33.244Z,15.05
2022-09-21T10:13:13.249Z,14.82
2022-09-21T10:15:46.293Z,15.36
2022-09-21T10:18:21.369Z,15.01
2022-09-21T10:21:00.234Z,14.51
2022-09-21T10:23:32.696Z,14.14
2022-09-21T10:26:03.679Z,14.00
2022-09-21T10:28:33.554Z,14.64
2022-09-21T10:31:13.252Z,15.43
2022-09-21T10:33:55.448Z,15.90
2022-09-21T10:36:32.484Z,15.28
2022-09-21T10:39:30.737Z,14.57
2022-09-21T10:42:04.268Z,14.34
2022-09-21T10:44:40.577Z,14.05
2022-09-21T10:47:19.945Z,13.64
2022-09-21T10:49:50.450Z,13.37
2022-09-21T10:52:21.809Z,13.11
2022-09-21T10:54:59.043Z,13.54
2022-09-21T10:57:27.912Z,13.70
2022-09-21T10:59:57.543Z,13.54
2022-09-21T11:02:30.309Z,14.20
2022-09-21T11:05:00.997Z,14.28
2022-09-21T11:07:32.498Z,13.85
2022-09-21T11:10:05.186Z,13.66
2022-09-21T11:12:38.046Z,13.53
2022-09-21T11:15:17.087Z,13.50
2022-09-21T11:17:49.911Z,13.39
2022-09-21T11:20:25.043Z,14.22
2022-09-21T11:23:00.775Z,14.95
2022-09-21T11:25:37.104Z,15.50
2022-09-21T11:28:13.538Z,15.41
2022-09-21T11:30:58.880Z,15.01
2022-09-21T11:33:37.262Z,14.75
2022-09-21T11:36:15.448Z,14.57
2022-09-21T11:38:53.703Z,14.23
2022-09-21T11:41:50.267Z,14.05
2022-09-21T11:44:27.690Z,13.88
2022-09-21T11:47:00.365Z,13.85
2022-09-21T11:50:07.852Z,13.85
2022-09-21T11:52:51.297Z,13.85
2022-09-21T11:55:27.391Z,13.79
2022-09-21T11:57:59.943Z,13.80
2022-09-21T12:00:29.983Z,13.81
2022-09-21T12:03:34.102Z,13.87
2022-09-21T12:06:32.818Z,13.79
2022-09-21T12:09:33.684Z,13.92
2022-09-21T12:12:07.172Z,13.88
2022-09-21T12:14:41.823Z,13.84
2022-09-21T12:17:13.166Z,13.85
2022-09-21T12:19:43.873Z,13.81
2022-09-21T12:22:17.773Z,13.92
2022-09-21T12:24:50.952Z,14.03
2022-09-21T12:27:26.725Z,14.01
2022-09-21T12:29:59.008Z,14.03
2022-09-21T12:32:38.377Z,13.99
2022-09-21T12:35:08.418Z,14.25
2022-09-21T12:37:39.314Z,14.31
2022-09-21T12:40:09.943Z,14.02
2022-09-21T12:42:41.532Z,13.86
2022-09-21T12:45:17.129Z,13.81
2022-09-21T12:47:53.338Z,13.84
2022-09-21T12:50:24.664Z,13.86
2022-09-21T12:52:54.528Z,13.97
2022-09-21T12:55:30.490Z,13.98
2022-09-21T12:58:15.104Z,14.00
2022-09-21T13:00:51.294Z,13.96
2022-09-21T13:03:22.388Z,13.75
2022-09-21T13:05:59.304Z,13.67
2022-09-21T13:08:28.691Z,13.59
2022-09-21T13:11:05.736Z,13.52
2022-09-21T13:13:35.321Z,13.37
2022-09-21T13:16:08.047Z,13.44
2022-09-21T13:18:37.713Z,13.49
2022-09-21T13:21:20.224Z,13.65
2022-09-21T13:23:53.611Z,13.90
2022-09-21T13:26:32.858Z,13.97
2022-09-21T13:29:04.173Z,13.90
2022-09-21T13:32:00.401Z,13.83
2022-09-21T13:34:30.561Z,13.73
2022-09-21T13:37:31.979Z,13.54
2022-09-21T13:40:35.426Z,13.56
2022-09-21T13:43:48.260Z,13.59
2022-09-21T13:46:56.313Z,13.52
2022-09-21T13:49:44.642Z,13.56
2022-09-21T13:52:32.428Z,13.81
2022-09-21T13:55:01.862Z,13.97
2022-09-21T13:57:34.644Z,13.91
2022-09-21T14:00:10.253Z,13.76
2022-09-21T14:02:44.345Z,13.70
2022-09-21T14:05:25.067Z,13.59
2022-09-21T14:07:58.924Z,13.63
2022-09-21T14:10:27.566Z,13.70
2022-09-21T14:12:57.589Z,13.68
2022-09-21T14:15:41.545Z,13.64
2022-09-21T14:18:22.996Z,13.54
2022-09-21T14:21:19.017Z,13.50
2022-09-21T14:24:30.222Z,13.49
2022-09-21T14:27:09.620Z,13.51
2022-09-21T14:29:44.624Z,13.63
2022-09-21T14:32:20.498Z,13.74
2022-09-21T14:34:49.758Z,13.87
2022-09-21T14:37:30.621Z,13.89
2022-09-21T14:40:01.822Z,13.83
2022-09-21T14:42:31.974Z,13.71
2022-09-21T14:45:04.055Z,13.52
2022-09-21T14:47:39.464Z,13.31
2022-09-21T14:50:35.037Z,13.23
2022-09-21T14:53:32.579Z,13.07
2022-09-21T14:56:21.233Z,12.89
2022-09-21T14:59:03.192Z,12.76
2022-09-21T15:01:41.455Z,12.69
2022-09-21T15:04:22.904Z,12.60
2022-09-21T15:07:08.872Z,12.46
2022-09-21T15:10:15.444Z,12.48
2022-09-21T15:12:47.757Z,12.47
2022-09-21T15:15:28.939Z,12.44
2022-09-21T15:18:02.007Z,12.41
2022-09-21T15:20:36.214Z,12.43
2022-09-21T15:23:19.836Z,12.49
2022-09-21T15:26:00.395Z,12.46
2022-09-21T15:28:58.024Z,12.41
2022-09-21T15:31:25.047Z,12.33
2022-09-21T15:33:53.833Z,12.31
2022-09-21T15:36:23.162Z,12.30
2022-09-21T15:38:52.040Z,12.20
2022-09-21T15:41:41.453Z,12.15
2022-09-21T15:44:16.224Z,12.08
2022-09-21T15:46:46.864Z,12.00
2022-09-21T15:49:18.363Z,11.87
2022-09-21T15:51:46.926Z,11.72
2022-09-21T15:54:22.876Z,11.56
2022-09-21T15:56:52.744Z,11.41
2022-09-21T15:59:22.296Z,11.29
2022-09-21T16:01:54.440Z,11.18
2022-09-21T16:04:23.565Z,11.06
2022-09-21T16:07:04.623Z,10.93
2022-09-21T16:09:41.812Z,10.79
2022-09-21T16:12:35.886Z,10.66
2022-09-21T16:15:06.901Z,10.55
2022-09-21T16:17:40.332Z,10.49
2022-09-21T16:20:20.538Z,10.37
2022-09-21T16:22:50.122Z,10.30
2022-09-21T16:25:34.383Z,10.23
2022-09-21T16:28:05.491Z,10.19
2022-09-21T16:30:48.811Z,10.17
2022-09-21T16:33:58.245Z,10.12
2022-09-21T16:36:41.970Z,10.11
2022-09-21T16:39:15.233Z,10.06
2022-09-21T16:41:56.249Z,9.97
2022-09-21T16:44:27.207Z,9.91
2022-09-21T16:46:58.296Z,9.84
2022-09-21T16:49:30.619Z,9.76
2022-09-21T16:51:59.747Z,9.72
2022-09-21T16:54:28.006Z,9.63
2022-09-21T16:56:57.545Z,9.55
2022-09-21T16:59:28.802Z,9.51
2022-09-21T17:02:00.674Z,9.43
2022-09-21T17:04:31.010Z,9.39
2022-09-21T17:07:01.108Z,9.32
2022-09-21T17:09:32.552Z,9.26
2022-09-21T17:12:02.771Z,9.16
2022-09-21T17:14:35.462Z,9.09
2022-09-21T17:17:05.892Z,9.06
2022-09-21T17:19:37.182Z,9.00
2022-09-21T17:22:07.851Z,8.94
2022-09-21T17:24:50.297Z,8.87
2022-09-21T17:27:21.570Z,8.83
2022-09-21T17:29:53.938Z,8.76
2022-09-21T17:32:43.280Z,8.70
2022-09-21T17:35:18.026Z,8.66
2022-09-21T17:37:46.596Z,8.65
2022-09-21T17:40:17.596Z,8.60
2022-09-21T17:42:48.714Z,8.52
2022-09-21T17:45:22.293Z,8.45
2022-09-21T17:47:52.085Z,8.38
2022-09-21T17:50:25.604Z,8.29
2022-09-21T17:53:12.084Z,8.24
2022-09-21T17:55:40.855Z,8.19
2022-09-21T17:58:21.198Z,8.12
2022-09-21T18:00:56.735Z,8.03
2022-09-21T18:03:26.240Z,7.93
2022-09-21T18:05:59.533Z,7.83
2022-09-21T18:08:32.138Z,7.76
2022-09-21T18:11:23.303Z,7.70
2022-09-21T18:13:56.394Z,7.65
2022-09-21T18:16:31.166Z,7.63
2022-09-21T18:19:07.579Z,7.60
2022-09-21T18:21:38.835Z,7.50
2022-09-21T18:24:21.084Z,7.38
2022-09-21T18:26:52.300Z,7.31
2022-09-21T18:29:40.838Z,7.26
2022-09-21T18:32:35.226Z,7.18
2022-09-21T18:35:10.649Z,7.14
2022-09-21T18:37:43.799Z,7.08
2022-09-21T18:40:26.586Z,7.06
2022-09-21T18:42:59.161Z,7.03
2022-09-21T18:45:30.001Z,7.00
2022-09-21T18:48:21.524Z,6.97
2022-09-21T18:50:55.353Z,6.90
2022-09-21T18:53:26.012Z,6.81
2022-09-21T18:55:55.374Z,6.77
2022-09-21T18:58:24.554Z,6.72
2022-09-21T19:00:53.487Z,6.64
2022-09-21T19:03:25.712Z,6.61
2022-09-21T19:06:02.017Z,6.56
2022-09-21T19:08:33.234Z,6.53
2022-09-21T19:11:03.340Z,6.47
2022-09-21T19:13:39.434Z,6.41
2022-09-21T19:16:12.765Z,6.33
2022-09-21T19:18:46.010Z,6.28
2022-09-21T19:21:21.656Z,6.24
2022-09-21T19:24:07.039Z,6.19
2022-09-21T19:26:40.927Z,6.18
2022-09-21T19:29:30.000Z,6.14
2022-09-21T19:31:59.209Z,6.12
2022-09-21T19:34:29.412Z,6.07
2022-09-21T19:37:01.614Z,6.02
2022-09-21T19:39:33.682Z,5.99
2022-09-21T19:42:10.133Z,5.93
2022-09-21T19:45:03.583Z,5.88
2022-09-21T19:47:39.193Z,5.85
2022-09-21T19:50:21.267Z,5.85
2022-09-21T19:52:50.932Z,5.81
2022-09-21T19:55:38.302Z,5.76
2022-09-21T19:58:24.784Z,5.72
2022-09-21T20:00:53.826Z,5.67
2022-09-21T20:03:31.272Z,5.63
2022-09-21T20:06:06.282Z,5.57
2022-09-21T20:08:37.990Z,5.56
2022-09-21T20:11:10.400Z,5.53
2022-09-21T20:14:06.426Z,5.51
2022-09-21T20:16:40.577Z,5.48
2022-09-21T20:19:17.510Z,5.46
2022-09-21T20:21:49.987Z,5.44
2022-09-21T20:24:22.537Z,5.41
2022-09-21T20:26:51.892Z,5.40
2022-09-21T20:29:21.986Z,5.38
2022-09-21T20:31:51.976Z,5.33
2022-09-21T20:34:20.857Z,5.29
2022-09-21T20:36:51.356Z,5.28
2022-09-21T20:39:19.723Z,5.21
2022-09-21T20:41:49.153Z,5.19
2022-09-21T20:44:18.207Z,5.17
2022-09-21T20:46:47.158Z,5.13
2022-09-21T20:49:16.287Z,5.12
2022-09-21T20:51:45.872Z,5.10
2022-09-21T20:54:17.355Z,5.08
2022-09-21T20:56:46.466Z,5.05
2022-09-21T20:59:14.995Z,5.03
2022-09-21T21:01:43.597Z,5.00
2022-09-21T21:04:13.195Z,5.01
2022-09-21T21:06:41.674Z,4.98
2022-09-21T21:09:10.547Z,4.94
2022-09-21T21:11:42.681Z,4.94
2022-09-21T21:14:13.373Z,4.92
2022-09-21T21:16:42.491Z,4.91
2022-09-21T21:19:11.239Z,4.86
2022-09-21T21:21:39.635Z,4.86
2022-09-21T21:24:25.705Z,4.85
2022-09-21T21:27:02.203Z,4.83
2022-09-21T21:29:31.395Z,4.82
2022-09-21T21:32:00.794Z,4.81
2022-09-21T21:34:30.277Z,4.81
2022-09-21T21:36:58.922Z,4.77
2022-09-21T21:39:27.296Z,4.76
2022-09-21T21:41:57.027Z,4.77
2022-09-21T21:44:25.333Z,4.75
2022-09-21T21:46:54.896Z,4.71
2022-09-21T21:49:23.709Z,4.72
2022-09-21T21:51:54.143Z,4.74
2022-09-21T21:54:27.032Z,4.74
2022-09-21T21:56:58.115Z,4.72
2022-09-21T21:59:27.251Z,4.66
2022-09-21T22:01:57.038Z,4.65
2022-09-21T22:04:28.039Z,4.62
2022-09-21T22:06:57.336Z,4.62
2022-09-21T22:09:27.068Z,4.57
2022-09-21T22:11:58.386Z,4.57
2022-09-21T22:14:28.700Z,4.55
2022-09-21T22:17:00.056Z,4.56
2022-09-21T22:19:29.455Z,4.55
2022-09-21T22:21:57.873Z,4.51
2022-09-21T22:24:26.880Z,4.50
2022-09-21T22:26:58.480Z,4.44
2022-09-21T22:29:26.893Z,4.40
2022-09-21T22:31:57.605Z,4.36
2022-09-21T22:34:26.795Z,4.34
2022-09-21T22:36:56.551Z,4.33
2022-09-21T22:39:26.916Z,4.33
2022-09-21T22:41:55.598Z,4.33
2022-09-21T22:44:25.678Z,4.29
2022-09-21T22:46:55.027Z,4.29
2022-09-21T22:49:23.835Z,4.27
2022-09-21T22:51:55.084Z,4.27
2022-09-21T22:54:26.736Z,4.23
2022-09-21T22:56:55.051Z,4.24
2022-09-21T22:59:25.350Z,4.29
2022-09-21T23:01:56.546Z,4.36
2022-09-21T23:04:26.066Z,4.33
2022-09-21T23:06:56.401Z,4.30
2022-09-21T23:09:26.140Z,4.32
2022-09-21T23:11:54.575Z,4.34
2022-09-21T23:14:24.711Z,4.40
2022-09-21T23:16:53.524Z,4.48
2022-09-21T23:19:23.832Z,4.49
2022-09-21T23:21:52.973Z,4.51
2022-09-21T23:24:21.887Z,4.56
2022-09-21T23:26:51.800Z,4.67
2022-09-21T23:29:20.580Z,4.67
2022-09-21T23:31:51.048Z,4.72
2022-09-21T23:34:19.514Z,4.72
2022-09-21T23:36:48.079Z,4.71
2022-09-21T23:39:17.189Z,4.69
2022-09-21T23:41:45.629Z,4.64
2022-09-21T23:44:13.953Z,4.61
2022-09-21T23:46:42.699Z,4.60
2022-09-21T23:49:12.804Z,4.58
2022-09-21T23:51:42.181Z,4.60
2022-09-21T23:54:10.916Z,4.62
2022-09-21T23:56:39.501Z,4.62
2022-09-21T23:59:08.610Z,4.58
